sensor_id;sensor_type;location;lat;lon;timestamp;pressure;altitude;pressure_sealevel;temperature;humidity
76044;BME280;64740;34.694;33.088;2023-03-25T00:04:24;1030.5;;;20;53.2
76044;BME280;64740;34.694;33.088;2023-03-25T00:08:40;1030.4;;;20;53.1
76044;BME280;64740;34.694;33.088;2023-03-25T00:14:12;1030.3;;;20.1;52.4
76044;BME280;64740;34.694;33.088;2023-03-25T00:18:40;1030.3;;;20.1;52.3
76044;BME280;64740;34.694;33.088;2023-03-25T00:24:12;1030.3;;;20.1;52.2
76044;BME280;64740;34.694;33.088;2023-03-25T00:29:22;1030.3;;;20.2;51.9
76044;BME280;64740;34.694;33.088;2023-03-25T00:33:52;1030.2;;;20.2;51.2
76044;BME280;64740;34.694;33.088;2023-03-25T00:39:10;1030.1;;;20.2;50.8
76044;BME280;64740;34.694;33.088;2023-03-25T00:44:00;1030;;;20.2;50.7
76044;BME280;64740;34.694;33.088;2023-03-25T00:49:12;1030;;;20.2;51.1
76044;BME280;64740;34.694;33.088;2023-03-25T00:54:24;1029.9;;;20.2;51
76044;BME280;64740;34.694;33.088;2023-03-25T00:58:40;1029.7;;;20.2;50.8
76044;BME280;64740;34.694;33.088;2023-03-25T01:04:14;1029.7;;;20.2;50.2
76044;BME280;64740;34.694;33.088;2023-03-25T01:08:50;1029.8;;;20.2;49.7
76044;BME280;64740;34.694;33.088;2023-03-25T01:13:53;1029.9;;;20.2;49.5
76044;BME280;64740;34.694;33.088;2023-03-25T01:19:10;1030;;;20.1;49.6
76044;BME280;64740;34.694;33.088;2023-03-25T01:24:26;1029.9;;;20.1;49.7
76044;BME280;64740;34.694;33.088;2023-03-25T01:29:02;1029.8;;;20;49.8
76044;BME280;64740;34.694;33.088;2023-03-25T01:33:52;1029.8;;;20;49.7
76044;BME280;64740;34.694;33.088;2023-03-25T01:39:22;1029.8;;;20;49.7
76044;BME280;64740;34.694;33.088;2023-03-25T01:44:03;1029.9;;;19.9;49.4
76044;BME280;64740;34.694;33.088;2023-03-25T01:49:25;1029.8;;;19.9;49.1
76044;BME280;64740;34.694;33.088;2023-03-25T01:54:02;1029.8;;;19.9;49.1
76044;BME280;64740;34.694;33.088;2023-03-25T01:59:03;1029.8;;;20;49.1
76044;BME280;64740;34.694;33.088;2023-03-25T02:04:10;1029.8;;;20;49.1
76044;BME280;64740;34.694;33.088;2023-03-25T02:09:03;1029.8;;;20;49.3
76044;BME280;64740;34.694;33.088;2023-03-25T02:14:25;1029.8;;;20;49.5
76044;BME280;64740;34.694;33.088;2023-03-25T02:18:53;1029.8;;;20;49.7
76044;BME280;64740;34.694;33.088;2023-03-25T02:23:52;1029.8;;;20;49.7
76044;BME280;64740;34.694;33.088;2023-03-25T02:29:12;1029.8;;;20;49.1
76044;BME280;64740;34.694;33.088;2023-03-25T02:34:47;1029.9;;;19.9;49.2
76044;BME280;64740;34.694;33.088;2023-03-25T02:39:26;1029.9;;;19.9;49
76044;BME280;64740;34.694;33.088;2023-03-25T02:44:03;1030;;;19.9;49
76044;BME280;64740;34.694;33.088;2023-03-25T02:48:41;1030;;;19.9;48.9
76044;BME280;64740;34.694;33.088;2023-03-25T02:54:11;1030;;;19.9;48.9
76044;BME280;64740;34.694;33.088;2023-03-25T02:59:00;1030.1;;;19.9;48.3
76044;BME280;64740;34.694;33.088;2023-03-25T03:04:24;1030;;;20;48
76044;BME280;64740;34.694;33.088;2023-03-25T03:09:05;1030;;;20.1;47.6
76044;BME280;64740;34.694;33.088;2023-03-25T03:13:45;1030;;;20.1;46.7
76044;BME280;64740;34.694;33.088;2023-03-25T03:19:14;1030;;;20.2;45.9
76044;BME280;64740;34.694;33.088;2023-03-25T03:24:04;1030;;;20.2;45.4
76044;BME280;64740;34.694;33.088;2023-03-25T03:29:25;1030;;;20.3;45.1
76044;BME280;64740;34.694;33.088;2023-03-25T03:33:51;1030;;;20.3;44.9
76044;BME280;64740;34.694;33.088;2023-03-25T03:38:52;1030;;;20.4;45.1
76044;BME280;64740;34.694;33.088;2023-03-25T03:44:09;1030;;;20.4;44.6
76044;BME280;64740;34.694;33.088;2023-03-25T03:48:41;1030.1;;;20.4;44.3
76044;BME280;64740;34.694;33.088;2023-03-25T03:54:05;1030.2;;;20.5;44.1
76044;BME280;64740;34.694;33.088;2023-03-25T03:59:03;1030.2;;;20.5;43.6
76044;BME280;64740;34.694;33.088;2023-03-25T04:03:42;1030.2;;;20.6;43.6
76044;BME280;64740;34.694;33.088;2023-03-25T04:09:12;1030.3;;;20.7;43.3
76044;BME280;64740;34.694;33.088;2023-03-25T04:14:00;1030.3;;;20.7;43
76044;BME280;64740;34.694;33.088;2023-03-25T04:19:24;1030.3;;;20.8;43.1
76044;BME280;64740;34.694;33.088;2023-03-25T04:23:50;1030.4;;;20.8;43
76044;BME280;64740;34.694;33.088;2023-03-25T04:29:02;1030.5;;;20.9;42.8
76044;BME280;64740;34.694;33.088;2023-03-25T04:34:10;1030.5;;;21;42.6
76044;BME280;64740;34.694;33.088;2023-03-25T04:38:50;1030.5;;;21.1;42.2
76044;BME280;64740;34.694;33.088;2023-03-25T04:44:26;1030.5;;;21.1;42.1
76044;BME280;64740;34.694;33.088;2023-03-25T04:49:08;1030.5;;;21.2;41.8
76044;BME280;64740;34.694;33.088;2023-03-25T04:54:22;1030.6;;;21.3;41.8
76044;BME280;64740;34.694;33.088;2023-03-25T04:59:08;1030.6;;;21.3;41.8
76044;BME280;64740;34.694;33.088;2023-03-25T05:04:01;1030.6;;;21.3;41.7
76044;BME280;64740;34.694;33.088;2023-03-25T05:08:50;1030.6;;;21.4;41.9
76044;BME280;64740;34.694;33.088;2023-03-25T05:14:00;1030.6;;;21.4;42.2
76044;BME280;64740;34.694;33.088;2023-03-25T05:18:38;1030.6;;;21.5;42.3
76044;BME280;64740;34.694;33.088;2023-03-25T05:24:11;1030.6;;;21.5;42.3
76044;BME280;64740;34.694;33.088;2023-03-25T05:28:48;1030.7;;;21.6;42
76044;BME280;64740;34.694;33.088;2023-03-25T05:34:22;1030.7;;;21.7;42
76044;BME280;64740;34.694;33.088;2023-03-25T05:39:01;1030.8;;;21.7;41.7
76044;BME280;64740;34.694;33.088;2023-03-25T05:43:38;1030.8;;;21.7;42
76044;BME280;64740;34.694;33.088;2023-03-25T05:49:08;1030.8;;;21.8;42.3
76044;BME280;64740;34.694;33.088;2023-03-25T05:54:03;1030.8;;;21.8;42.5
76044;BME280;64740;34.694;33.088;2023-03-25T05:59:24;1030.8;;;21.9;42.5
76044;BME280;64740;34.694;33.088;2023-03-25T06:03:48;1030.9;;;22;42.1
76044;BME280;64740;34.694;33.088;2023-03-25T06:08:38;1030.9;;;22.1;42.3
76044;BME280;64740;34.694;33.088;2023-03-25T06:14:10;1031;;;22.3;41.6
76044;BME280;64740;34.694;33.088;2023-03-25T06:18:49;1031;;;22.4;41.8
76044;BME280;64740;34.694;33.088;2023-03-25T06:24:24;1031.1;;;22.5;42.5
76044;BME280;64740;34.694;33.088;2023-03-25T06:29:00;1031.1;;;22.6;43.5
76044;BME280;64740;34.694;33.088;2023-03-25T06:33:38;1031.1;;;22.6;44.7
76044;BME280;64740;34.694;33.088;2023-03-25T06:39:10;1031;;;22.7;43.8
76044;BME280;64740;34.694;33.088;2023-03-25T06:43:38;1031;;;22.9;43.1
76044;BME280;64740;34.694;33.088;2023-03-25T06:49:24;1031;;;23.1;43.4
76044;BME280;64740;34.694;33.088;2023-03-25T06:54:16;1031.1;;;23.3;43.4
76044;BME280;64740;34.694;33.088;2023-03-25T06:59:00;1031.1;;;23.4;45.1
76044;BME280;64740;34.694;33.088;2023-03-25T07:03:40;1031.1;;;23.5;46.2
76044;BME280;64740;34.694;33.088;2023-03-25T07:08:48;1031.1;;;23.6;45.6
76044;BME280;64740;34.694;33.088;2023-03-25T07:14:26;1031.1;;;23.6;44.6
76044;BME280;64740;34.694;33.088;2023-03-25T07:19:02;1031.2;;;23.5;43.8
76044;BME280;64740;34.694;33.088;2023-03-25T07:23:38;1031.2;;;23.5;44.6
76044;BME280;64740;34.694;33.088;2023-03-25T07:28:58;1031.3;;;23.5;45.1
76044;BME280;64740;34.694;33.088;2023-03-25T07:33:48;1031.2;;;23.3;46.4
76044;BME280;64740;34.694;33.088;2023-03-25T07:39:24;1031.3;;;23.3;46.4
76044;BME280;64740;34.694;33.088;2023-03-25T07:44:00;1031.3;;;23.3;46.1
76044;BME280;64740;34.694;33.088;2023-03-25T07:48:50;1031.4;;;23.2;46.8
76044;BME280;64740;34.694;33.088;2023-03-25T07:54:12;1031.4;;;23.1;49.3
76044;BME280;64740;34.694;33.088;2023-03-25T07:58:39;1031.5;;;23;48.9
76044;BME280;64740;34.694;33.088;2023-03-25T08:04:24;1031.5;;;22.9;48.2
76044;BME280;64740;34.694;33.088;2023-03-25T08:08:38;1031.6;;;22.8;49.4
76044;BME280;64740;34.694;33.088;2023-03-25T08:13:48;1031.7;;;22.8;49.3
76044;BME280;64740;34.694;33.088;2023-03-25T08:19:12;1031.7;;;22.8;48.9
76044;BME280;64740;34.694;33.088;2023-03-25T08:23:49;1031.7;;;22.8;48.5
76044;BME280;64740;34.694;33.088;2023-03-25T08:29:22;1031.6;;;22.9;48.3
76044;BME280;64740;34.694;33.088;2023-03-25T08:34:23;1031.6;;;23.1;48.2
76044;BME280;64740;34.694;33.088;2023-03-25T08:38:50;1031.5;;;23.2;47.5
76044;BME280;64740;34.694;33.088;2023-03-25T08:44:12;1031.4;;;23.4;46.6
76044;BME280;64740;34.694;33.088;2023-03-25T08:48:39;1031.4;;;23.6;45.6
76044;BME280;64740;34.694;33.088;2023-03-25T08:54:27;1031.5;;;23.8;44.5
76044;BME280;64740;34.694;33.088;2023-03-25T08:59:00;1031.5;;;24;44
76044;BME280;64740;34.694;33.088;2023-03-25T09:03:38;1031.5;;;24.1;44.1
76044;BME280;64740;34.694;33.088;2023-03-25T09:09:10;1031.5;;;24.2;44.5
76044;BME280;64740;34.694;33.088;2023-03-25T09:13:38;1031.5;;;24.3;44.1
76044;BME280;64740;34.694;33.088;2023-03-25T09:19:27;1031.4;;;24.4;44.4
76044;BME280;64740;34.694;33.088;2023-03-25T09:23:38;1031.3;;;24.4;45.2
76044;BME280;64740;34.694;33.088;2023-03-25T09:29:00;1031.3;;;24.5;45.3
76044;BME280;64740;34.694;33.088;2023-03-25T09:34:08;1031.3;;;24.6;44.8
76044;BME280;64740;34.694;33.088;2023-03-25T09:38:48;1031.3;;;24.7;44.6
76044;BME280;64740;34.694;33.088;2023-03-25T09:44:23;1031.2;;;24.8;44.1
76044;BME280;64740;34.694;33.088;2023-03-25T09:48:58;1031.1;;;25;43.9
76044;BME280;64740;34.694;33.088;2023-03-25T09:53:40;1031;;;25.1;43.5
76044;BME280;64740;34.694;33.088;2023-03-25T09:59:12;1031;;;25.2;43.9
76044;BME280;64740;34.694;33.088;2023-03-25T10:03:52;1030.8;;;25.3;43.7
76044;BME280;64740;34.694;33.088;2023-03-25T10:09:26;1030.7;;;25.4;43.2
76044;BME280;64740;34.694;33.088;2023-03-25T10:14:02;1030.7;;;25.5;43.5
76044;BME280;64740;34.694;33.088;2023-03-25T10:19:27;1030.7;;;25.5;43.7
76044;BME280;64740;34.694;33.088;2023-03-25T10:24:12;1030.7;;;25.6;44
76044;BME280;64740;34.694;33.088;2023-03-25T10:28:40;1030.6;;;25.8;43.8
76044;BME280;64740;34.694;33.088;2023-03-25T10:34:22;1030.7;;;26.1;42.4
76044;BME280;64740;34.694;33.088;2023-03-25T10:38:39;1030.6;;;26.5;42.2
76044;BME280;64740;34.694;33.088;2023-03-25T10:44:23;1030.5;;;26.6;42
76044;BME280;64740;34.694;33.088;2023-03-25T10:49:07;1030.4;;;26.9;41.9
76044;BME280;64740;34.694;33.088;2023-03-25T10:53:47;1030.3;;;27.3;41.6
76044;BME280;64740;34.694;33.088;2023-03-25T10:59:21;1030.2;;;27.5;41.5
76044;BME280;64740;34.694;33.088;2023-03-25T11:04:01;1030.2;;;27.9;41.3
76044;BME280;64740;34.694;33.088;2023-03-25T11:09:23;1030.1;;;28.3;42
76044;BME280;64740;34.694;33.088;2023-03-25T11:14:01;1030.1;;;28.7;42.1
76044;BME280;64740;34.694;33.088;2023-03-25T11:18:47;1030.1;;;28.3;42.6
76044;BME280;64740;34.694;33.088;2023-03-25T11:24:26;1030.1;;;27.6;43.4
76044;BME280;64740;34.694;33.088;2023-03-25T11:28:53;1030;;;27;44.4
76044;BME280;64740;34.694;33.088;2023-03-25T11:34:27;1030;;;26.4;45.6
76044;BME280;64740;34.694;33.088;2023-03-25T11:39:14;1030;;;26;46.7
76044;BME280;64740;34.694;33.088;2023-03-25T11:43:51;1030;;;25.6;48.4
76044;BME280;64740;34.694;33.088;2023-03-25T11:49:09;1030;;;25.1;49.6
76044;BME280;64740;34.694;33.088;2023-03-25T11:54:01;1029.9;;;24.8;50.6
76044;BME280;64740;34.694;33.088;2023-03-25T11:59:22;1029.9;;;24.6;51.2
76044;BME280;64740;34.694;33.088;2023-03-25T12:04:12;1029.9;;;24.4;52
76044;BME280;64740;34.694;33.088;2023-03-25T12:08:49;1029.9;;;24.3;53.3
76044;BME280;64740;34.694;33.088;2023-03-25T12:14:28;1029.9;;;24.2;54
76044;BME280;64740;34.694;33.088;2023-03-25T12:19:05;1029.8;;;24.1;53.1
76044;BME280;64740;34.694;33.088;2023-03-25T12:24:30;1029.8;;;24.1;52.6
76044;BME280;64740;34.694;33.088;2023-03-25T12:29:16;1029.8;;;24.1;52.1
76044;BME280;64740;34.694;33.088;2023-03-25T12:33:44;1029.8;;;24.1;52.2
76044;BME280;64740;34.694;33.088;2023-03-25T12:39:31;1029.9;;;24.2;53.1
76044;BME280;64740;34.694;33.088;2023-03-25T12:43:55;1029.9;;;24.7;52.2
76044;BME280;64740;34.694;33.088;2023-03-25T12:49:28;1029.8;;;25.7;50
76044;BME280;64740;34.694;33.088;2023-03-25T12:53:53;1029.8;;;26.6;47.7
76044;BME280;64740;34.694;33.088;2023-03-25T12:58:57;1029.8;;;27.3;46.2
76044;BME280;64740;34.694;33.088;2023-03-25T13:04:32;1029.9;;;27.4;45.3
76044;BME280;64740;34.694;33.088;2023-03-25T13:09:25;1029.9;;;27;45.4
76044;BME280;64740;34.694;33.088;2023-03-25T13:14:26;1029.9;;;26.6;45.3
76044;BME280;64740;34.694;33.088;2023-03-25T13:19:09;1029.9;;;26.4;45.2
76044;BME280;64740;34.694;33.088;2023-03-25T13:23:51;1030;;;26.1;46.2
76044;BME280;64740;34.694;33.088;2023-03-25T13:29:16;1029.9;;;25.9;46.6
76044;BME280;64740;34.694;33.088;2023-03-25T13:34:04;1030;;;25.7;47.4
76044;BME280;64740;34.694;33.088;2023-03-25T13:39:29;1030;;;26.2;46.9
76044;BME280;64740;34.694;33.088;2023-03-25T13:44:11;1030.1;;;26.5;46.4
76044;BME280;64740;34.694;33.088;2023-03-25T13:48:49;1030.2;;;26.4;46.1
76044;BME280;64740;34.694;33.088;2023-03-25T13:54:26;1030.1;;;26;46.6
76044;BME280;64740;34.694;33.088;2023-03-25T13:59:06;1030.1;;;26;47
76044;BME280;64740;34.694;33.088;2023-03-25T14:09:01;1030.1;;;26.5;46.7
76044;BME280;64740;34.694;33.088;2023-03-25T14:13:41;1030;;;26.9;46.3
76044;BME280;64740;34.694;33.088;2023-03-25T14:19:28;1030.1;;;27.4;45.3
76044;BME280;64740;34.694;33.088;2023-03-25T14:23:41;1030.1;;;27.9;43.2
76044;BME280;64740;34.694;33.088;2023-03-25T14:29:18;1030.1;;;28.2;41.2
76044;BME280;64740;34.694;33.088;2023-03-25T14:34:27;1030.1;;;28.1;40.4
76044;BME280;64740;34.694;33.088;2023-03-25T14:38:49;1030;;;28.1;40.4
76044;BME280;64740;34.694;33.088;2023-03-25T14:44:23;1030;;;28.1;40.4
76044;BME280;64740;34.694;33.088;2023-03-25T14:48:41;1030;;;28.2;40.2
76044;BME280;64740;34.694;33.088;2023-03-25T14:54:14;1030.1;;;28.2;40.1
76044;BME280;64740;34.694;33.088;2023-03-25T14:59:24;1030.2;;;28;40.2
76044;BME280;64740;34.694;33.088;2023-03-25T15:03:51;1030.3;;;27.6;40.5
76044;BME280;64740;34.694;33.088;2023-03-25T15:09:23;1030.4;;;27;41.3
76044;BME280;64740;34.694;33.088;2023-03-25T15:13:53;1030.4;;;26.5;42
76044;BME280;64740;34.694;33.088;2023-03-25T15:19:11;1030.5;;;26.3;42.4
76044;BME280;64740;34.694;33.088;2023-03-25T15:24:27;1030.5;;;26;43
76044;BME280;64740;34.694;33.088;2023-03-25T15:28:53;1030.6;;;25.6;43.4
76044;BME280;64740;34.694;33.088;2023-03-25T15:34:29;1030.6;;;25.3;44
76044;BME280;64740;34.694;33.088;2023-03-25T15:38:51;1030.8;;;24.9;44.5
76044;BME280;64740;34.694;33.088;2023-03-25T15:49:28;1030.9;;;24.3;46
76044;BME280;64740;34.694;33.088;2023-03-25T15:53:55;1031;;;24.1;47.1
76044;BME280;64740;34.694;33.088;2023-03-25T15:59:11;1031;;;23.9;48.1
76044;BME280;64740;34.694;33.088;2023-03-25T16:04:02;1031.1;;;23.8;49.6
76044;BME280;64740;34.694;33.088;2023-03-25T16:08:49;1031.2;;;23.6;50.9
76044;BME280;64740;34.694;33.088;2023-03-25T16:14:23;1031.3;;;23.4;52
76044;BME280;64740;34.694;33.088;2023-03-25T16:18:41;1031.4;;;23.2;53.7
76044;BME280;64740;34.694;33.088;2023-03-25T16:24:23;1031.5;;;22.9;54.4
76044;BME280;64740;34.694;33.088;2023-03-25T16:29:04;1031.7;;;22.8;54.8
76044;BME280;64740;34.694;33.088;2023-03-25T16:34:17;1031.7;;;22.8;55.2
76044;BME280;64740;34.694;33.088;2023-03-25T16:39:25;1031.8;;;22.7;55.7
76044;BME280;64740;34.694;33.088;2023-03-25T16:43:41;1031.9;;;22.6;56
76044;BME280;64740;34.694;33.088;2023-03-25T16:49:28;1032;;;22.3;55.6
76044;BME280;64740;34.694;33.088;2023-03-25T16:53:49;1032.1;;;21.6;57.6
76044;BME280;64740;34.694;33.088;2023-03-25T16:59:14;1032.2;;;21.1;59.4
76044;BME280;64740;34.694;33.088;2023-03-25T17:04:23;1032.3;;;20.7;60.5
76044;BME280;64740;34.694;33.088;2023-03-25T17:08:41;1032.4;;;20.4;62.1
76044;BME280;64740;34.694;33.088;2023-03-25T17:14:27;1032.5;;;20.1;63.2
76044;BME280;64740;34.694;33.088;2023-03-25T17:18:50;1032.5;;;20;63.9
76044;BME280;64740;34.694;33.088;2023-03-25T17:24:19;1032.6;;;19.8;64.7
76044;BME280;64740;34.694;33.088;2023-03-25T17:29:23;1032.7;;;19.7;65.4
76044;BME280;64740;34.694;33.088;2023-03-25T17:33:49;1032.7;;;19.6;65.9
76044;BME280;64740;34.694;33.088;2023-03-25T17:39:25;1032.7;;;19.5;66.4
76044;BME280;64740;34.694;33.088;2023-03-25T17:44:03;1032.7;;;19.5;67
76044;BME280;64740;34.694;33.088;2023-03-25T17:49:13;1032.8;;;19.5;66.8
76044;BME280;64740;34.694;33.088;2023-03-25T17:54:13;1032.9;;;19.3;66.1
76044;BME280;64740;34.694;33.088;2023-03-25T17:58:55;1033;;;19.2;66.3
76044;BME280;64740;34.694;33.088;2023-03-25T18:04:27;1033;;;19.3;67.1
76044;BME280;64740;34.694;33.088;2023-03-25T18:09:01;1033;;;19.7;65
76044;BME280;64740;34.694;33.088;2023-03-25T18:14:13;1033;;;20;63.9
76044;BME280;64740;34.694;33.088;2023-03-25T18:19:23;1033;;;20.2;63.1
76044;BME280;64740;34.694;33.088;2023-03-25T18:23:51;1033;;;20.5;62.4
76044;BME280;64740;34.694;33.088;2023-03-25T18:28:59;1033.1;;;20.7;61.7
76044;BME280;64740;34.694;33.088;2023-03-25T18:34:03;1033.1;;;20.8;61.2
76044;BME280;64740;34.694;33.088;2023-03-25T18:39:11;1033.2;;;20.9;60.8
76044;BME280;64740;34.694;33.088;2023-03-25T18:44:25;1033.2;;;20.9;60.5
76044;BME280;64740;34.694;33.088;2023-03-25T18:48:53;1033.2;;;20.9;60.3
76044;BME280;64740;34.694;33.088;2023-03-25T18:54:25;1033.2;;;21;60.2
76044;BME280;64740;34.694;33.088;2023-03-25T18:59:25;1033.3;;;21;60
76044;BME280;64740;34.694;33.088;2023-03-25T19:04:11;1033.3;;;21;59.9
76044;BME280;64740;34.694;33.088;2023-03-25T19:09:27;1033.3;;;21;59.8
76044;BME280;64740;34.694;33.088;2023-03-25T19:13:41;1033.4;;;21;59.7
76044;BME280;64740;34.694;33.088;2023-03-25T19:19:27;1033.3;;;21;59.4
76044;BME280;64740;34.694;33.088;2023-03-25T19:23:51;1033.3;;;20.9;59.1
76044;BME280;64740;34.694;33.088;2023-03-25T19:29:13;1033.3;;;20.9;59
76044;BME280;64740;34.694;33.088;2023-03-25T19:34:27;1033.3;;;20.8;58.8
76044;BME280;64740;34.694;33.088;2023-03-25T19:38:53;1033.3;;;20.7;58.8
76044;BME280;64740;34.694;33.088;2023-03-25T19:44:17;1033.3;;;20.7;58.8
76044;BME280;64740;34.694;33.088;2023-03-25T19:49:03;1033.3;;;20.7;58.8
76044;BME280;64740;34.694;33.088;2023-03-25T19:54:15;1033.3;;;20.6;58.8
76044;BME280;64740;34.694;33.088;2023-03-25T19:59:27;1033.3;;;20.5;58.7
76044;BME280;64740;34.694;33.088;2023-03-25T20:04:03;1033.4;;;20.4;58.7
76044;BME280;64740;34.694;33.088;2023-03-25T20:09:27;1033.4;;;20.3;58.7
76044;BME280;64740;34.694;33.088;2023-03-25T20:14:03;1033.4;;;20.3;58.7
76044;BME280;64740;34.694;33.088;2023-03-25T20:19:15;1033.3;;;20.3;58.7
76044;BME280;64740;34.694;33.088;2023-03-25T20:24:27;1033.3;;;20.3;58.7
76044;BME280;64740;34.694;33.088;2023-03-25T20:28:41;1033.2;;;20.4;58.5
76044;BME280;64740;34.694;33.088;2023-03-25T20:34:27;1033.1;;;20.4;58.3
76044;BME280;64740;34.694;33.088;2023-03-25T20:38:49;1033.1;;;20.4;58.1
76044;BME280;64740;34.694;33.088;2023-03-25T20:44:13;1033.1;;;20.4;58.1
76044;BME280;64740;34.694;33.088;2023-03-25T20:49:27;1033.2;;;20.4;58.1
76044;BME280;64740;34.694;33.088;2023-03-25T20:54:03;1033.2;;;20.4;58
76044;BME280;64740;34.694;33.088;2023-03-25T20:59:11;1033.2;;;20.3;58.2
76044;BME280;64740;34.694;33.088;2023-03-25T21:04:01;1033.2;;;20.3;58.3
76044;BME280;64740;34.694;33.088;2023-03-25T21:09:13;1033.2;;;20.4;58.3
76044;BME280;64740;34.694;33.088;2023-03-25T21:14:25;1033.1;;;20.4;58.1
76044;BME280;64740;34.694;33.088;2023-03-25T21:19:03;1033.1;;;20.4;57.8
76044;BME280;64740;34.694;33.088;2023-03-25T21:24:25;1033.1;;;20.3;57.4
76044;BME280;64740;34.694;33.088;2023-03-25T21:29:09;1033.1;;;20.3;57.3
76044;BME280;64740;34.694;33.088;2023-03-25T21:34:07;1033;;;20.3;57.2
76044;BME280;64740;34.694;33.088;2023-03-25T21:39:25;1033;;;20.3;57.1
76044;BME280;64740;34.694;33.088;2023-03-25T21:43:41;1033;;;20.4;56.9
76044;BME280;64740;34.694;33.088;2023-03-25T21:49:25;1033;;;20.4;56.4
76044;BME280;64740;34.694;33.088;2023-03-25T21:54:01;1032.9;;;20.3;56.1
76044;BME280;64740;34.694;33.088;2023-03-25T21:59:11;1032.9;;;20.2;56.2
76044;BME280;64740;34.694;33.088;2023-03-25T22:04:25;1032.9;;;20.2;56.1
76044;BME280;64740;34.694;33.088;2023-03-25T22:08:41;1032.9;;;20.2;56.2
76044;BME280;64740;34.694;33.088;2023-03-25T22:14:23;1032.8;;;20.2;55.9
76044;BME280;64740;34.694;33.088;2023-03-25T22:19:15;1032.8;;;20.1;55.7
76044;BME280;64740;34.694;33.088;2023-03-25T22:24:05;1032.8;;;20;55.8
76044;BME280;64740;34.694;33.088;2023-03-25T22:29:21;1032.7;;;20;55.8
76044;BME280;64740;34.694;33.088;2023-03-25T22:33:41;1032.7;;;19.9;55.9
76044;BME280;64740;34.694;33.088;2023-03-25T22:39:23;1032.6;;;19.9;56
76044;BME280;64740;34.694;33.088;2023-03-25T22:43:41;1032.6;;;19.9;55.9
76044;BME280;64740;34.694;33.088;2023-03-25T22:49:23;1032.6;;;19.9;55.8
76044;BME280;64740;34.694;33.088;2023-03-25T22:54:05;1032.6;;;19.9;55.7
76044;BME280;64740;34.694;33.088;2023-03-25T22:58:41;1032.6;;;19.9;55.5
76044;BME280;64740;34.694;33.088;2023-03-25T23:03:57;1032.6;;;19.9;55.3
76044;BME280;64740;34.694;33.088;2023-03-25T23:09:15;1032.5;;;19.9;54.8
76044;BME280;64740;34.694;33.088;2023-03-25T23:14:25;1032.5;;;19.9;54.3
76044;BME280;64740;34.694;33.088;2023-03-25T23:19:17;1032.5;;;19.9;54.1
76044;BME280;64740;34.694;33.088;2023-03-25T23:23:52;1032.5;;;19.9;53.7
76044;BME280;64740;34.694;33.088;2023-03-25T23:28:59;1032.4;;;19.8;53.6
76044;BME280;64740;34.694;33.088;2023-03-25T23:33:43;1032.4;;;19.7;53.5
76044;BME280;64740;34.694;33.088;2023-03-25T23:39:25;1032.4;;;19.7;53.6
76044;BME280;64740;34.694;33.088;2023-03-25T23:44:25;1032.4;;;19.6;52.9
76044;BME280;64740;34.694;33.088;2023-03-25T23:48:41;1032.3;;;19.5;53
76044;BME280;64740;34.694;33.088;2023-03-25T23:53:48;1032.3;;;19.3;52.7
76044;BME280;64740;34.694;33.088;2023-03-25T23:58:43;1032.3;;;19.1;53
